<?xml version="1.0" encoding="UTF-8" standalone="no" ?>
<gpx xmlns="http://www.topografix.com/GPX/1/1" xmlns:xsi="http://www.w3.org/2001/XMLSchema-instance" xsi:schemaLocation="http://www.topografix.com/GPX/1/1 http://www.topografix.com/GPX/1/1/gpx.xsd" version="1.1" creator="VisuGPX - https://www.visugpx.com">
  <metadata>
    <name>Liausson - cirque de Mourèze</name>
    <desc><![CDATA[2016-03 - Liausson - cirque de Mourèze

[b]album[/b] : [url]https://goo.gl/photos/dUgLWUMUTmhRkZQH6[/url]
[img]https://1.bp.blogspot.com/-CwFdbewo4vI/WNFLjFwP1TI/AAAAAAAAQ8c/rJP_Wf5_rpsNWx9t-VUSReWMz3jTRlB8gCLcB/s1600/2016-03_Llausson_i.JPG[/img]
[b]Idées de randonnées dans la même région[/b]
Parcours : [url]https://www.visugpx.com/membres/24856/causses/salagou/[/url]
Photos : [url]https://jcvertygo.blogspot.com/p/salagou.html[/url]]]></desc>
  </metadata>
  <trk>
    <name><![CDATA[Liausson - cirque de Mourèze_1]]></name>
    <trkseg>
      <trkpt lat="43.63547" lon="3.36951">
        <ele>205.2</ele>
        <time>2016-03-05T12:25:59Z</time>
      </trkpt>
      <trkpt lat="43.63552" lon="3.36954">
        <ele>205.2</ele>
        <time>2016-03-05T12:26:04Z</time>
      </trkpt>
      <trkpt lat="43.63556" lon="3.36959">
        <ele>203.973978926</ele>
        <time>2016-03-05T12:26:09Z</time>
      </trkpt>
      <trkpt lat="43.63552" lon="3.3697">
        <ele>203.973978926</ele>
        <time>2016-03-05T12:26:14Z</time>
      </trkpt>
      <trkpt lat="43.63553" lon="3.36977">
        <ele>204.64072163937</ele>
        <time>2016-03-05T12:26:23Z</time>
      </trkpt>
      <trkpt lat="43.63541" lon="3.37003">
        <ele>205.65143573143</ele>
        <time>2016-03-05T12:26:36Z</time>
      </trkpt>
      <trkpt lat="43.63534" lon="3.37021">
        <ele>206.49879530968</ele>
        <time>2016-03-05T12:26:50Z</time>
      </trkpt>
      <trkpt lat="43.63523" lon="3.37056">
        <ele>207.42352906808</ele>
        <time>2016-03-05T12:27:16Z</time>
      </trkpt>
      <trkpt lat="43.63522" lon="3.37058">
        <ele>207.42352906808</ele>
        <time>2016-03-05T12:27:19Z</time>
      </trkpt>
      <trkpt lat="43.63521" lon="3.37058">
        <ele>207.42352906808</ele>
        <time>2016-03-05T12:27:24Z</time>
      </trkpt>
      <trkpt lat="43.63518" lon="3.37061">
        <ele>207.42352906808</ele>
        <time>2016-03-05T12:27:29Z</time>
      </trkpt>
      <trkpt lat="43.6352" lon="3.37061">
        <ele>207.42352906808</ele>
        <time>2016-03-05T12:27:34Z</time>
      </trkpt>
      <trkpt lat="43.63522" lon="3.37061">
        <ele>208.26112598735</ele>
        <time>2016-03-05T12:27:39Z</time>
      </trkpt>
      <trkpt lat="43.6352" lon="3.37062">
        <ele>208.26112598735</ele>
        <time>2016-03-05T12:27:44Z</time>
      </trkpt>
      <trkpt lat="43.63533" lon="3.37058">
        <ele>209.98048000007</ele>
        <time>2016-03-05T12:27:54Z</time>
      </trkpt>
      <trkpt lat="43.63531" lon="3.37062">
        <ele>209.98048000007</ele>
        <time>2016-03-05T12:27:59Z</time>
      </trkpt>
      <trkpt lat="43.63523" lon="3.37067">
        <ele>211.88010221923</ele>
        <time>2016-03-05T12:28:04Z</time>
      </trkpt>
      <trkpt lat="43.63522" lon="3.37068">
        <ele>211.88010221923</ele>
        <time>2016-03-05T12:28:31Z</time>
      </trkpt>
      <trkpt lat="43.63518" lon="3.37074">
        <ele>211.88010221923</ele>
        <time>2016-03-05T12:31:55Z</time>
      </trkpt>
      <trkpt lat="43.63513" lon="3.37076">
        <ele>215.78651105922</ele>
        <time>2016-03-05T12:31:59Z</time>
      </trkpt>
      <trkpt lat="43.63466" lon="3.37091">
        <ele>219.24599854278</ele>
        <time>2016-03-05T12:32:39Z</time>
      </trkpt>
      <trkpt lat="43.6345" lon="3.37103">
        <ele>222.22309979648</ele>
        <time>2016-03-05T12:33:00Z</time>
      </trkpt>
      <trkpt lat="43.63435" lon="3.37121">
        <ele>224.70416894246</ele>
        <time>2016-03-05T12:33:21Z</time>
      </trkpt>
      <trkpt lat="43.63434" lon="3.37122">
        <ele>224.70416894246</ele>
        <time>2016-03-05T12:33:21Z</time>
      </trkpt>
      <trkpt lat="43.63434" lon="3.37125">
        <ele>224.70416894246</ele>
        <time>2016-03-05T12:34:00Z</time>
      </trkpt>
      <trkpt lat="43.63427" lon="3.3713">
        <ele>226.50955053951</ele>
        <time>2016-03-05T12:34:34Z</time>
      </trkpt>
      <trkpt lat="43.63427" lon="3.37134">
        <ele>226.50955053951</ele>
        <time>2016-03-05T12:34:34Z</time>
      </trkpt>
      <trkpt lat="43.63434" lon="3.37142">
        <ele>228.06668209303</ele>
        <time>2016-03-05T12:34:39Z</time>
      </trkpt>
      <trkpt lat="43.63439" lon="3.37149">
        <ele>228.06668209303</ele>
        <time>2016-03-05T12:34:44Z</time>
      </trkpt>
      <trkpt lat="43.63436" lon="3.37162">
        <ele>229.12294375495</ele>
        <time>2016-03-05T12:34:54Z</time>
      </trkpt>
      <trkpt lat="43.63435" lon="3.37167">
        <ele>229.12294375495</ele>
        <time>2016-03-05T12:34:59Z</time>
      </trkpt>
      <trkpt lat="43.63431" lon="3.37178">
        <ele>229.98541777957</ele>
        <time>2016-03-05T12:35:09Z</time>
      </trkpt>
      <trkpt lat="43.63429" lon="3.37185">
        <ele>229.98541777957</ele>
        <time>2016-03-05T12:35:14Z</time>
      </trkpt>
      <trkpt lat="43.63422" lon="3.37205">
        <ele>230.47359182919</ele>
        <time>2016-03-05T12:35:29Z</time>
      </trkpt>
      <trkpt lat="43.63416" lon="3.37208">
        <ele>230.47359182919</ele>
        <time>2016-03-05T12:35:34Z</time>
      </trkpt>
      <trkpt lat="43.63412" lon="3.37217">
        <ele>230.43055074282</ele>
        <time>2016-03-05T12:35:44Z</time>
      </trkpt>
      <trkpt lat="43.634" lon="3.3723">
        <ele>229.9290363727</ele>
        <time>2016-03-05T12:35:59Z</time>
      </trkpt>
      <trkpt lat="43.63394" lon="3.37235">
        <ele>229.9290363727</ele>
        <time>2016-03-05T12:36:04Z</time>
      </trkpt>
      <trkpt lat="43.63396" lon="3.37246">
        <ele>229.30112027642</ele>
        <time>2016-03-05T12:36:14Z</time>
      </trkpt>
      <trkpt lat="43.63396" lon="3.37251">
        <ele>229.30112027642</ele>
        <time>2016-03-05T12:36:19Z</time>
      </trkpt>
      <trkpt lat="43.63393" lon="3.37257">
        <ele>229.30112027642</ele>
        <time>2016-03-05T12:36:29Z</time>
      </trkpt>
      <trkpt lat="43.63391" lon="3.37261">
        <ele>228.86554210485</ele>
        <time>2016-03-05T12:36:34Z</time>
      </trkpt>
      <trkpt lat="43.63388" lon="3.37265">
        <ele>228.86554210485</ele>
        <time>2016-03-05T12:36:39Z</time>
      </trkpt>
      <trkpt lat="43.63383" lon="3.37269">
        <ele>228.48566055873</ele>
        <time>2016-03-05T12:36:44Z</time>
      </trkpt>
      <trkpt lat="43.63381" lon="3.37272">
        <ele>228.48566055873</ele>
        <time>2016-03-05T12:36:49Z</time>
      </trkpt>
      <trkpt lat="43.63381" lon="3.37273">
        <ele>228.48566055873</ele>
        <time>2016-03-05T12:36:54Z</time>
      </trkpt>
      <trkpt lat="43.63375" lon="3.3727">
        <ele>228.02513212042</ele>
        <time>2016-03-05T12:37:04Z</time>
      </trkpt>
      <trkpt lat="43.63372" lon="3.37271">
        <ele>228.02513212042</ele>
        <time>2016-03-05T12:37:13Z</time>
      </trkpt>
      <trkpt lat="43.6334" lon="3.373">
        <ele>228.64838506261</ele>
        <time>2016-03-05T12:37:51Z</time>
      </trkpt>
      <trkpt lat="43.6332" lon="3.37328">
        <ele>229.83015013692</ele>
        <time>2016-03-05T12:38:25Z</time>
      </trkpt>
      <trkpt lat="43.63311" lon="3.3735">
        <ele>231.02194089178</ele>
        <time>2016-03-05T12:38:25Z</time>
      </trkpt>
      <trkpt lat="43.63302" lon="3.37358">
        <ele>232.19398721869</ele>
        <time>2016-03-05T12:38:33Z</time>
      </trkpt>
      <trkpt lat="43.63297" lon="3.37363">
        <ele>232.19398721869</ele>
        <time>2016-03-05T12:38:38Z</time>
      </trkpt>
      <trkpt lat="43.63229" lon="3.37371">
        <ele>234.3360830544</ele>
        <time>2016-03-05T12:39:58Z</time>
      </trkpt>
      <trkpt lat="43.63228" lon="3.3737">
        <ele>234.3360830544</ele>
        <time>2016-03-05T12:39:59Z</time>
      </trkpt>
      <trkpt lat="43.63218" lon="3.37355">
        <ele>236.53184949627</ele>
        <time>2016-03-05T12:40:17Z</time>
      </trkpt>
      <trkpt lat="43.63218" lon="3.37353">
        <ele>236.53184949627</ele>
        <time>2016-03-05T12:40:19Z</time>
      </trkpt>
      <trkpt lat="43.63215" lon="3.3733">
        <ele>239.19471011512</ele>
        <time>2016-03-05T12:40:48Z</time>
      </trkpt>
      <trkpt lat="43.63213" lon="3.37323">
        <ele>239.19471011512</ele>
        <time>2016-03-05T12:40:48Z</time>
      </trkpt>
      <trkpt lat="43.63202" lon="3.37305">
        <ele>242.00803224107</ele>
        <time>2016-03-05T12:41:08Z</time>
      </trkpt>
      <trkpt lat="43.63189" lon="3.37278">
        <ele>244.94559626434</ele>
        <time>2016-03-05T12:41:41Z</time>
      </trkpt>
      <trkpt lat="43.63179" lon="3.37269">
        <ele>247.83047639581</ele>
        <time>2016-03-05T12:41:48Z</time>
      </trkpt>
      <trkpt lat="43.63178" lon="3.37267">
        <ele>247.83047639581</ele>
        <time>2016-03-05T12:41:58Z</time>
      </trkpt>
      <trkpt lat="43.63178" lon="3.37233">
        <ele>250.94242899018</ele>
        <time>2016-03-05T12:42:48Z</time>
      </trkpt>
      <trkpt lat="43.63175" lon="3.3722">
        <ele>253.98467929026</ele>
        <time>2016-03-05T12:43:07Z</time>
      </trkpt>
      <trkpt lat="43.63176" lon="3.37216">
        <ele>253.98467929026</ele>
        <time>2016-03-05T12:43:07Z</time>
      </trkpt>
      <trkpt lat="43.63177" lon="3.37215">
        <ele>253.98467929026</ele>
        <time>2016-03-05T12:43:32Z</time>
      </trkpt>
      <trkpt lat="43.6317" lon="3.37208">
        <ele>257.75677583392</ele>
        <time>2016-03-05T12:43:45Z</time>
      </trkpt>
      <trkpt lat="43.6317" lon="3.37205">
        <ele>257.75677583392</ele>
        <time>2016-03-05T12:44:19Z</time>
      </trkpt>
      <trkpt lat="43.63176" lon="3.37224">
        <ele>261.96990832453</ele>
        <time>2016-03-05T12:45:27Z</time>
      </trkpt>
      <trkpt lat="43.63171" lon="3.37245">
        <ele>265.62659452941</ele>
        <time>2016-03-05T12:46:04Z</time>
      </trkpt>
      <trkpt lat="43.63167" lon="3.37255">
        <ele>265.62659452941</ele>
        <time>2016-03-05T12:46:15Z</time>
      </trkpt>
      <trkpt lat="43.63153" lon="3.37262">
        <ele>268.77971763525</ele>
        <time>2016-03-05T12:46:46Z</time>
      </trkpt>
      <trkpt lat="43.63149" lon="3.37263">
        <ele>268.77971763525</ele>
        <time>2016-03-05T12:46:46Z</time>
      </trkpt>
      <trkpt lat="43.63076" lon="3.37263">
        <ele>271.86833986476</ele>
        <time>2016-03-05T12:48:49Z</time>
      </trkpt>
      <trkpt lat="43.63074" lon="3.37267">
        <ele>271.86833986476</ele>
        <time>2016-03-05T12:48:54Z</time>
      </trkpt>
      <trkpt lat="43.63069" lon="3.37271">
        <ele>274.64415146372</ele>
        <time>2016-03-05T12:49:13Z</time>
      </trkpt>
      <trkpt lat="43.63065" lon="3.37279">
        <ele>274.64415146372</ele>
        <time>2016-03-05T12:49:13Z</time>
      </trkpt>
      <trkpt lat="43.63041" lon="3.37308">
        <ele>277.95084715481</ele>
        <time>2016-03-05T12:50:08Z</time>
      </trkpt>
      <trkpt lat="43.63033" lon="3.37316">
        <ele>281.0324902747</ele>
        <time>2016-03-05T12:50:16Z</time>
      </trkpt>
      <trkpt lat="43.63022" lon="3.37327">
        <ele>283.94121027762</ele>
        <time>2016-03-05T12:50:43Z</time>
      </trkpt>
      <trkpt lat="43.63006" lon="3.37346">
        <ele>286.89077224987</ele>
        <time>2016-03-05T12:51:16Z</time>
      </trkpt>
      <trkpt lat="43.63001" lon="3.37352">
        <ele>286.89077224987</ele>
        <time>2016-03-05T12:51:33Z</time>
      </trkpt>
      <trkpt lat="43.62983" lon="3.37374">
        <ele>290.3808645429</ele>
        <time>2016-03-05T12:52:04Z</time>
      </trkpt>
      <trkpt lat="43.62978" lon="3.3738">
        <ele>290.3808645429</ele>
        <time>2016-03-05T12:52:05Z</time>
      </trkpt>
      <trkpt lat="43.62978" lon="3.37381">
        <ele>290.3808645429</ele>
        <time>2016-03-05T12:52:06Z</time>
      </trkpt>
      <trkpt lat="43.62976" lon="3.37385">
        <ele>293.74164688531</ele>
        <time>2016-03-05T12:52:22Z</time>
      </trkpt>
      <trkpt lat="43.6296" lon="3.37395">
        <ele>297.33640211906</ele>
        <time>2016-03-05T12:52:54Z</time>
      </trkpt>
      <trkpt lat="43.62917" lon="3.37397">
        <ele>302.64715084226</ele>
        <time>2016-03-05T12:54:46Z</time>
      </trkpt>
      <trkpt lat="43.62917" lon="3.37396">
        <ele>302.64715084226</ele>
        <time>2016-03-05T12:54:46Z</time>
      </trkpt>
      <trkpt lat="43.62922" lon="3.37358">
        <ele>310.35243071093</ele>
        <time>2016-03-05T12:56:32Z</time>
      </trkpt>
      <trkpt lat="43.62926" lon="3.37347">
        <ele>310.35243071093</ele>
        <time>2016-03-05T12:56:47Z</time>
      </trkpt>
      <trkpt lat="43.6292" lon="3.3732">
        <ele>318.14225865873</ele>
        <time>2016-03-05T12:57:15Z</time>
      </trkpt>
      <trkpt lat="43.6292" lon="3.37318">
        <ele>318.14225865873</ele>
        <time>2016-03-05T12:57:22Z</time>
      </trkpt>
      <trkpt lat="43.62921" lon="3.37318">
        <ele>318.14225865873</ele>
        <time>2016-03-05T12:57:34Z</time>
      </trkpt>
      <trkpt lat="43.62887" lon="3.37329">
        <ele>326.09383975367</ele>
        <time>2016-03-05T12:58:44Z</time>
      </trkpt>
      <trkpt lat="43.62872" lon="3.37335">
        <ele>333.72054093252</ele>
        <time>2016-03-05T12:59:15Z</time>
      </trkpt>
      <trkpt lat="43.62811" lon="3.3735">
        <ele>342.77894403976</ele>
        <time>2016-03-05T13:01:01Z</time>
      </trkpt>
      <trkpt lat="43.6281" lon="3.37352">
        <ele>342.77894403976</ele>
        <time>2016-03-05T13:01:05Z</time>
      </trkpt>
      <trkpt lat="43.62805" lon="3.37363">
        <ele>351.58106279373</ele>
        <time>2016-03-05T13:01:28Z</time>
      </trkpt>
      <trkpt lat="43.62802" lon="3.37369">
        <ele>351.58106279373</ele>
        <time>2016-03-05T13:01:28Z</time>
      </trkpt>
      <trkpt lat="43.62803" lon="3.3737">
        <ele>351.58106279373</ele>
        <time>2016-03-05T13:01:29Z</time>
      </trkpt>
      <trkpt lat="43.628" lon="3.37389">
        <ele>361.10506228843</ele>
        <time>2016-03-05T13:02:00Z</time>
      </trkpt>
      <trkpt lat="43.62793" lon="3.37384">
        <ele>361.10506228843</ele>
        <time>2016-03-05T13:02:31Z</time>
      </trkpt>
      <trkpt lat="43.62791" lon="3.37378">
        <ele>371.18092631885</ele>
        <time>2016-03-05T13:02:31Z</time>
      </trkpt>
      <trkpt lat="43.62795" lon="3.37351">
        <ele>380.33178751229</ele>
        <time>2016-03-05T13:03:00Z</time>
      </trkpt>
      <trkpt lat="43.62794" lon="3.37344">
        <ele>380.33178751229</ele>
        <time>2016-03-05T13:03:00Z</time>
      </trkpt>
      <trkpt lat="43.62797" lon="3.37329">
        <ele>388.55483803377</ele>
        <time>2016-03-05T13:03:18Z</time>
      </trkpt>
      <trkpt lat="43.62809" lon="3.37266">
        <ele>396.29965187244</ele>
        <time>2016-03-05T13:04:41Z</time>
      </trkpt>
      <trkpt lat="43.6282" lon="3.37246">
        <ele>403.63780812595</ele>
        <time>2016-03-05T13:05:29Z</time>
      </trkpt>
      <trkpt lat="43.62841" lon="3.37184">
        <ele>411.23096459026</ele>
        <time>2016-03-05T13:06:42Z</time>
      </trkpt>
      <trkpt lat="43.62847" lon="3.37166">
        <ele>418.54368993903</ele>
        <time>2016-03-05T13:07:07Z</time>
      </trkpt>
      <trkpt lat="43.62849" lon="3.37162">
        <ele>418.54368993903</ele>
        <time>2016-03-05T13:07:07Z</time>
      </trkpt>
      <trkpt lat="43.62859" lon="3.37135">
        <ele>425.85549920426</ele>
        <time>2016-03-05T13:07:43Z</time>
      </trkpt>
      <trkpt lat="43.62859" lon="3.37135">
        <ele>425.85549920426</ele>
        <time>2016-03-05T13:07:43Z</time>
      </trkpt>
      <trkpt lat="43.62874" lon="3.3709">
        <ele>434.36663820145</ele>
        <time>2016-03-05T13:09:29Z</time>
      </trkpt>
      <trkpt lat="43.62881" lon="3.37055">
        <ele>442.129121795</ele>
        <time>2016-03-05T13:10:22Z</time>
      </trkpt>
      <trkpt lat="43.62878" lon="3.37024">
        <ele>449.5902406599</ele>
        <time>2016-03-05T13:11:46Z</time>
      </trkpt>
      <trkpt lat="43.62879" lon="3.36993">
        <ele>456.57546595567</ele>
        <time>2016-03-05T13:11:46Z</time>
      </trkpt>
      <trkpt lat="43.62866" lon="3.36957">
        <ele>462.96983678127</ele>
        <time>2016-03-05T13:12:31Z</time>
      </trkpt>
      <trkpt lat="43.62863" lon="3.36954">
        <ele>462.96983678127</ele>
        <time>2016-03-05T13:12:48Z</time>
      </trkpt>
      <trkpt lat="43.62869" lon="3.36943">
        <ele>469.64691288252</ele>
        <time>2016-03-05T13:13:28Z</time>
      </trkpt>
      <trkpt lat="43.62871" lon="3.36942">
        <ele>469.64691288252</ele>
        <time>2016-03-05T13:13:29Z</time>
      </trkpt>
      <trkpt lat="43.62872" lon="3.36924">
        <ele>475.39929257015</ele>
        <time>2016-03-05T13:13:43Z</time>
      </trkpt>
      <trkpt lat="43.62873" lon="3.36923">
        <ele>475.39929257015</ele>
        <time>2016-03-05T13:13:44Z</time>
      </trkpt>
      <trkpt lat="43.62872" lon="3.36906">
        <ele>480.25307541167</ele>
        <time>2016-03-05T13:14:00Z</time>
      </trkpt>
      <trkpt lat="43.62872" lon="3.36905">
        <ele>480.25307541167</ele>
        <time>2016-03-05T13:14:05Z</time>
      </trkpt>
      <trkpt lat="43.62874" lon="3.36882">
        <ele>484.27805632514</ele>
        <time>2016-03-05T13:14:32Z</time>
      </trkpt>
      <trkpt lat="43.62875" lon="3.36882">
        <ele>484.27805632514</ele>
        <time>2016-03-05T13:14:32Z</time>
      </trkpt>
      <trkpt lat="43.62876" lon="3.36832">
        <ele>487.67112889985</ele>
        <time>2016-03-05T13:15:32Z</time>
      </trkpt>
      <trkpt lat="43.62876" lon="3.36825">
        <ele>487.67112889985</ele>
        <time>2016-03-05T13:15:36Z</time>
      </trkpt>
      <trkpt lat="43.62855" lon="3.36701">
        <ele>490.70236416474</ele>
        <time>2016-03-05T13:17:30Z</time>
      </trkpt>
      <trkpt lat="43.62852" lon="3.36688">
        <ele>493.18774277009</ele>
        <time>2016-03-05T13:17:52Z</time>
      </trkpt>
      <trkpt lat="43.62857" lon="3.36676">
        <ele>495.42175050834</ele>
        <time>2016-03-05T13:18:18Z</time>
      </trkpt>
      <trkpt lat="43.62857" lon="3.36676">
        <ele>495.42175050834</ele>
        <time>2016-03-05T13:18:19Z</time>
      </trkpt>
      <trkpt lat="43.6286" lon="3.36674">
        <ele>495.42175050834</ele>
        <time>2016-03-05T13:18:34Z</time>
      </trkpt>
      <trkpt lat="43.62893" lon="3.36647">
        <ele>498.52978590774</ele>
        <time>2016-03-05T13:19:28Z</time>
      </trkpt>
      <trkpt lat="43.62899" lon="3.36637">
        <ele>501.34006519829</ele>
        <time>2016-03-05T13:19:28Z</time>
      </trkpt>
      <trkpt lat="43.62906" lon="3.36626">
        <ele>503.65107432541</ele>
        <time>2016-03-05T13:19:36Z</time>
      </trkpt>
      <trkpt lat="43.62916" lon="3.36616">
        <ele>505.66747295816</ele>
        <time>2016-03-05T13:20:00Z</time>
      </trkpt>
      <trkpt lat="43.6292" lon="3.36617">
        <ele>505.66747295816</ele>
        <time>2016-03-05T13:20:00Z</time>
      </trkpt>
      <trkpt lat="43.62934" lon="3.36628">
        <ele>507.5217554521</ele>
        <time>2016-03-05T13:20:44Z</time>
      </trkpt>
      <trkpt lat="43.6293" lon="3.36616">
        <ele>509.466865161</ele>
        <time>2016-03-05T13:21:05Z</time>
      </trkpt>
      <trkpt lat="43.62927" lon="3.36614">
        <ele>509.466865161</ele>
        <time>2016-03-05T13:21:05Z</time>
      </trkpt>
      <trkpt lat="43.62927" lon="3.3659">
        <ele>511.14557316714</ele>
        <time>2016-03-05T13:21:25Z</time>
      </trkpt>
      <trkpt lat="43.62932" lon="3.36537">
        <ele>512.48739554099</ele>
        <time>2016-03-05T13:22:20Z</time>
      </trkpt>
      <trkpt lat="43.62933" lon="3.36495">
        <ele>513.41352493698</ele>
        <time>2016-03-05T13:22:51Z</time>
      </trkpt>
      <trkpt lat="43.62939" lon="3.36481">
        <ele>513.90970390467</ele>
        <time>2016-03-05T13:23:08Z</time>
      </trkpt>
      <trkpt lat="43.62943" lon="3.36472">
        <ele>513.90970390467</ele>
        <time>2016-03-05T13:23:11Z</time>
      </trkpt>
      <trkpt lat="43.62942" lon="3.36464">
        <ele>514.05031330118</ele>
        <time>2016-03-05T13:23:24Z</time>
      </trkpt>
      <trkpt lat="43.62943" lon="3.36457">
        <ele>514.05031330118</ele>
        <time>2016-03-05T13:23:24Z</time>
      </trkpt>
      <trkpt lat="43.62948" lon="3.3644">
        <ele>514.07813929342</ele>
        <time>2016-03-05T13:23:40Z</time>
      </trkpt>
      <trkpt lat="43.62948" lon="3.36434">
        <ele>514.07813929342</ele>
        <time>2016-03-05T13:23:40Z</time>
      </trkpt>
      <trkpt lat="43.62954" lon="3.36421">
        <ele>513.95876590369</ele>
        <time>2016-03-05T13:23:55Z</time>
      </trkpt>
      <trkpt lat="43.62984" lon="3.36323">
        <ele>514.09310042859</ele>
        <time>2016-03-05T13:25:24Z</time>
      </trkpt>
      <trkpt lat="43.63015" lon="3.36283">
        <ele>514.33258439649</ele>
        <time>2016-03-05T13:26:31Z</time>
      </trkpt>
      <trkpt lat="43.63016" lon="3.36282">
        <ele>514.33258439649</ele>
        <time>2016-03-05T13:26:46Z</time>
      </trkpt>
      <trkpt lat="43.63013" lon="3.36288">
        <ele>514.33258439649</ele>
        <time>2016-03-05T13:28:44Z</time>
      </trkpt>
      <trkpt lat="43.63018" lon="3.36289">
        <ele>516.05320550118</ele>
        <time>2016-03-05T13:41:59Z</time>
      </trkpt>
      <trkpt lat="43.63018" lon="3.36292">
        <ele>516.05320550118</ele>
        <time>2016-03-05T13:48:49Z</time>
      </trkpt>
      <trkpt lat="43.63018" lon="3.36287">
        <ele>516.05320550118</ele>
        <time>2016-03-05T13:58:44Z</time>
      </trkpt>
      <trkpt lat="43.63018" lon="3.36287">
        <ele>516.05320550118</ele>
        <time>2016-03-05T13:59:17Z</time>
      </trkpt>
      <trkpt lat="43.63008" lon="3.36293">
        <ele>518.13157341121</ele>
        <time>2016-03-05T14:16:04Z</time>
      </trkpt>
      <trkpt lat="43.62973" lon="3.36324">
        <ele>520.04456104101</ele>
        <time>2016-03-05T14:17:05Z</time>
      </trkpt>
      <trkpt lat="43.62972" lon="3.36324">
        <ele>520.04456104101</ele>
        <time>2016-03-05T14:17:06Z</time>
      </trkpt>
      <trkpt lat="43.62958" lon="3.36403">
        <ele>521.58160463176</ele>
        <time>2016-03-05T14:19:16Z</time>
      </trkpt>
      <trkpt lat="43.6295" lon="3.36434">
        <ele>522.70700241636</ele>
        <time>2016-03-05T14:19:32Z</time>
      </trkpt>
      <trkpt lat="43.62946" lon="3.36444">
        <ele>522.70700241636</ele>
        <time>2016-03-05T14:19:32Z</time>
      </trkpt>
      <trkpt lat="43.62935" lon="3.36482">
        <ele>523.15773902623</ele>
        <time>2016-03-05T14:19:59Z</time>
      </trkpt>
      <trkpt lat="43.62935" lon="3.36486">
        <ele>523.15773902623</ele>
        <time>2016-03-05T14:19:59Z</time>
      </trkpt>
      <trkpt lat="43.62927" lon="3.3658">
        <ele>522.69170742953</ele>
        <time>2016-03-05T14:20:59Z</time>
      </trkpt>
      <trkpt lat="43.6286" lon="3.3668">
        <ele>521.23110399742</ele>
        <time>2016-03-05T14:22:49Z</time>
      </trkpt>
      <trkpt lat="43.62858" lon="3.36687">
        <ele>521.23110399742</ele>
        <time>2016-03-05T14:22:49Z</time>
      </trkpt>
      <trkpt lat="43.62863" lon="3.36707">
        <ele>519.41311217647</ele>
        <time>2016-03-05T14:23:14Z</time>
      </trkpt>
      <trkpt lat="43.6288" lon="3.36781">
        <ele>517.07864245808</ele>
        <time>2016-03-05T14:23:59Z</time>
      </trkpt>
      <trkpt lat="43.62861" lon="3.36862">
        <ele>513.57653737393</ele>
        <time>2016-03-05T14:26:00Z</time>
      </trkpt>
      <trkpt lat="43.62853" lon="3.36859">
        <ele>513.57653737393</ele>
        <time>2016-03-05T14:26:00Z</time>
      </trkpt>
      <trkpt lat="43.62834" lon="3.3688">
        <ele>509.47474121556</ele>
        <time>2016-03-05T14:26:45Z</time>
      </trkpt>
      <trkpt lat="43.62805" lon="3.36919">
        <ele>504.76697979342</ele>
        <time>2016-03-05T14:27:41Z</time>
      </trkpt>
      <trkpt lat="43.62805" lon="3.36931">
        <ele>504.76697979342</ele>
        <time>2016-03-05T14:27:41Z</time>
      </trkpt>
      <trkpt lat="43.62799" lon="3.36949">
        <ele>499.75153292949</ele>
        <time>2016-03-05T14:27:59Z</time>
      </trkpt>
      <trkpt lat="43.62792" lon="3.36994">
        <ele>493.85417631229</ele>
        <time>2016-03-05T14:28:44Z</time>
      </trkpt>
      <trkpt lat="43.62789" lon="3.36996">
        <ele>493.85417631229</ele>
        <time>2016-03-05T14:28:49Z</time>
      </trkpt>
      <trkpt lat="43.62782" lon="3.36995">
        <ele>487.85722944255</ele>
        <time>2016-03-05T14:29:08Z</time>
      </trkpt>
      <trkpt lat="43.62758" lon="3.36973">
        <ele>480.3364454753</ele>
        <time>2016-03-05T14:30:06Z</time>
      </trkpt>
      <trkpt lat="43.62756" lon="3.3697">
        <ele>480.3364454753</ele>
        <time>2016-03-05T14:30:06Z</time>
      </trkpt>
      <trkpt lat="43.62752" lon="3.36966">
        <ele>480.3364454753</ele>
        <time>2016-03-05T14:30:21Z</time>
      </trkpt>
      <trkpt lat="43.62748" lon="3.36961">
        <ele>472.34098001643</ele>
        <time>2016-03-05T14:30:23Z</time>
      </trkpt>
      <trkpt lat="43.62746" lon="3.36962">
        <ele>472.34098001643</ele>
        <time>2016-03-05T14:30:23Z</time>
      </trkpt>
      <trkpt lat="43.62718" lon="3.36959">
        <ele>463.11310617861</ele>
        <time>2016-03-05T14:31:25Z</time>
      </trkpt>
      <trkpt lat="43.62717" lon="3.36958">
        <ele>463.11310617861</ele>
        <time>2016-03-05T14:31:26Z</time>
      </trkpt>
      <trkpt lat="43.62696" lon="3.36935">
        <ele>452.9629456015</ele>
        <time>2016-03-05T14:31:58Z</time>
      </trkpt>
      <trkpt lat="43.62697" lon="3.36934">
        <ele>452.9629456015</ele>
        <time>2016-03-05T14:31:59Z</time>
      </trkpt>
      <trkpt lat="43.62687" lon="3.36907">
        <ele>441.86243418786</ele>
        <time>2016-03-05T14:32:45Z</time>
      </trkpt>
      <trkpt lat="43.62683" lon="3.36903">
        <ele>441.86243418786</ele>
        <time>2016-03-05T14:32:45Z</time>
      </trkpt>
      <trkpt lat="43.62676" lon="3.36904">
        <ele>430.73895042968</ele>
        <time>2016-03-05T14:33:01Z</time>
      </trkpt>
      <trkpt lat="43.62676" lon="3.36904">
        <ele>430.73895042968</ele>
        <time>2016-03-05T14:33:01Z</time>
      </trkpt>
      <trkpt lat="43.62671" lon="3.36905">
        <ele>430.73895042968</ele>
        <time>2016-03-05T14:33:16Z</time>
      </trkpt>
      <trkpt lat="43.62668" lon="3.36904">
        <ele>430.73895042968</ele>
        <time>2016-03-05T14:33:18Z</time>
      </trkpt>
      <trkpt lat="43.62666" lon="3.3688">
        <ele>419.26869521681</ele>
        <time>2016-03-05T14:33:47Z</time>
      </trkpt>
      <trkpt lat="43.62666" lon="3.36875">
        <ele>419.26869521681</ele>
        <time>2016-03-05T14:33:50Z</time>
      </trkpt>
      <trkpt lat="43.62665" lon="3.36866">
        <ele>407.22389496556</ele>
        <time>2016-03-05T14:34:29Z</time>
      </trkpt>
      <trkpt lat="43.62664" lon="3.3686">
        <ele>407.22389496556</ele>
        <time>2016-03-05T14:34:33Z</time>
      </trkpt>
      <trkpt lat="43.62664" lon="3.36855">
        <ele>407.22389496556</ele>
        <time>2016-03-05T14:34:34Z</time>
      </trkpt>
      <trkpt lat="43.62657" lon="3.36782">
        <ele>394.65371227423</ele>
        <time>2016-03-05T14:35:26Z</time>
      </trkpt>
      <trkpt lat="43.62655" lon="3.36777">
        <ele>394.65371227423</ele>
        <time>2016-03-05T14:35:27Z</time>
      </trkpt>
      <trkpt lat="43.62649" lon="3.36749">
        <ele>382.06547058288</ele>
        <time>2016-03-05T14:35:54Z</time>
      </trkpt>
      <trkpt lat="43.62648" lon="3.36732">
        <ele>369.98588207146</ele>
        <time>2016-03-05T14:36:17Z</time>
      </trkpt>
      <trkpt lat="43.62638" lon="3.36699">
        <ele>358.12215530855</ele>
        <time>2016-03-05T14:36:43Z</time>
      </trkpt>
      <trkpt lat="43.62624" lon="3.36631">
        <ele>346.43202002364</ele>
        <time>2016-03-05T14:37:26Z</time>
      </trkpt>
      <trkpt lat="43.62618" lon="3.36589">
        <ele>335.55218104865</ele>
        <time>2016-03-05T14:37:50Z</time>
      </trkpt>
      <trkpt lat="43.62605" lon="3.36441">
        <ele>325.23328796878</ele>
        <time>2016-03-05T14:39:56Z</time>
      </trkpt>
      <trkpt lat="43.62612" lon="3.36429">
        <ele>316.07761069367</ele>
        <time>2016-03-05T14:40:05Z</time>
      </trkpt>
      <trkpt lat="43.62624" lon="3.36411">
        <ele>308.00472699187</ele>
        <time>2016-03-05T14:40:19Z</time>
      </trkpt>
      <trkpt lat="43.62637" lon="3.36395">
        <ele>300.7487295777</ele>
        <time>2016-03-05T14:40:55Z</time>
      </trkpt>
      <trkpt lat="43.62656" lon="3.36351">
        <ele>294.34821246793</ele>
        <time>2016-03-05T14:41:30Z</time>
      </trkpt>
      <trkpt lat="43.62668" lon="3.3631">
        <ele>288.51853481107</ele>
        <time>2016-03-05T14:41:55Z</time>
      </trkpt>
      <trkpt lat="43.62664" lon="3.36299">
        <ele>288.51853481107</ele>
        <time>2016-03-05T14:41:55Z</time>
      </trkpt>
      <trkpt lat="43.62623" lon="3.36245">
        <ele>282.99346524749</ele>
        <time>2016-03-05T14:42:39Z</time>
      </trkpt>
      <trkpt lat="43.62605" lon="3.3619">
        <ele>277.69755504118</ele>
        <time>2016-03-05T14:43:21Z</time>
      </trkpt>
      <trkpt lat="43.62608" lon="3.36167">
        <ele>272.73238025854</ele>
        <time>2016-03-05T14:43:42Z</time>
      </trkpt>
      <trkpt lat="43.6261" lon="3.36154">
        <ele>268.46418267396</ele>
        <time>2016-03-05T14:43:42Z</time>
      </trkpt>
      <trkpt lat="43.6261" lon="3.36137">
        <ele>264.79730400397</ele>
        <time>2016-03-05T14:44:00Z</time>
      </trkpt>
      <trkpt lat="43.62614" lon="3.36123">
        <ele>261.64078121452</ele>
        <time>2016-03-05T14:44:00Z</time>
      </trkpt>
      <trkpt lat="43.62612" lon="3.36093">
        <ele>258.76420214131</ele>
        <time>2016-03-05T14:44:23Z</time>
      </trkpt>
      <trkpt lat="43.62596" lon="3.36065">
        <ele>256.12570321293</ele>
        <time>2016-03-05T14:45:03Z</time>
      </trkpt>
      <trkpt lat="43.62571" lon="3.35995">
        <ele>252.83509214684</ele>
        <time>2016-03-05T14:46:10Z</time>
      </trkpt>
      <trkpt lat="43.62564" lon="3.35997">
        <ele>252.83509214684</ele>
        <time>2016-03-05T14:46:10Z</time>
      </trkpt>
      <trkpt lat="43.62465" lon="3.3595">
        <ele>249.23630198332</ele>
        <time>2016-03-05T14:48:08Z</time>
      </trkpt>
      <trkpt lat="43.62413" lon="3.35897">
        <ele>245.04322908339</ele>
        <time>2016-03-05T14:49:20Z</time>
      </trkpt>
      <trkpt lat="43.62395" lon="3.35875">
        <ele>241.28916551154</ele>
        <time>2016-03-05T14:49:50Z</time>
      </trkpt>
      <trkpt lat="43.62393" lon="3.35867">
        <ele>241.28916551154</ele>
        <time>2016-03-05T14:50:00Z</time>
      </trkpt>
      <trkpt lat="43.62392" lon="3.35863">
        <ele>241.28916551154</ele>
        <time>2016-03-05T14:50:00Z</time>
      </trkpt>
      <trkpt lat="43.62391" lon="3.35856">
        <ele>238.2814876049</ele>
        <time>2016-03-05T14:50:05Z</time>
      </trkpt>
      <trkpt lat="43.6238" lon="3.35846">
        <ele>235.91356246593</ele>
        <time>2016-03-05T14:50:22Z</time>
      </trkpt>
      <trkpt lat="43.62375" lon="3.35836">
        <ele>235.91356246593</ele>
        <time>2016-03-05T14:50:22Z</time>
      </trkpt>
      <trkpt lat="43.62329" lon="3.3579">
        <ele>233.79638085423</ele>
        <time>2016-03-05T14:51:34Z</time>
      </trkpt>
      <trkpt lat="43.62324" lon="3.35782">
        <ele>233.79638085423</ele>
        <time>2016-03-05T14:51:47Z</time>
      </trkpt>
      <trkpt lat="43.62323" lon="3.35781">
        <ele>233.79638085423</ele>
        <time>2016-03-05T14:51:47Z</time>
      </trkpt>
      <trkpt lat="43.62323" lon="3.35781">
        <ele>232.15953556295</ele>
        <time>2016-03-05T14:51:55Z</time>
      </trkpt>
      <trkpt lat="43.62309" lon="3.35766">
        <ele>230.62344048184</ele>
        <time>2016-03-05T14:52:24Z</time>
      </trkpt>
      <trkpt lat="43.62305" lon="3.35762">
        <ele>230.62344048184</ele>
        <time>2016-03-05T14:52:46Z</time>
      </trkpt>
      <trkpt lat="43.62279" lon="3.35735">
        <ele>227.98578115554</ele>
        <time>2016-03-05T14:54:02Z</time>
      </trkpt>
      <trkpt lat="43.62278" lon="3.35733">
        <ele>227.98578115554</ele>
        <time>2016-03-05T14:54:02Z</time>
      </trkpt>
      <trkpt lat="43.62268" lon="3.35727">
        <ele>225.75853504851</ele>
        <time>2016-03-05T14:54:35Z</time>
      </trkpt>
      <trkpt lat="43.62264" lon="3.35726">
        <ele>225.75853504851</ele>
        <time>2016-03-05T14:54:35Z</time>
      </trkpt>
      <trkpt lat="43.62224" lon="3.357">
        <ele>223.52563440548</ele>
        <time>2016-03-05T14:55:40Z</time>
      </trkpt>
      <trkpt lat="43.62221" lon="3.357">
        <ele>223.52563440548</ele>
        <time>2016-03-05T14:55:40Z</time>
      </trkpt>
      <trkpt lat="43.62215" lon="3.35692">
        <ele>221.76633835635</ele>
        <time>2016-03-05T14:55:56Z</time>
      </trkpt>
      <trkpt lat="43.62212" lon="3.35691">
        <ele>221.76633835635</ele>
        <time>2016-03-05T14:55:56Z</time>
      </trkpt>
      <trkpt lat="43.62211" lon="3.35691">
        <ele>221.76633835635</ele>
        <time>2016-03-05T14:55:59Z</time>
      </trkpt>
      <trkpt lat="43.62186" lon="3.35689">
        <ele>220.13082676504</ele>
        <time>2016-03-05T14:56:34Z</time>
      </trkpt>
      <trkpt lat="43.62185" lon="3.35687">
        <ele>220.13082676504</ele>
        <time>2016-03-05T14:56:34Z</time>
      </trkpt>
      <trkpt lat="43.62156" lon="3.35692">
        <ele>218.0209302898</ele>
        <time>2016-03-05T14:57:28Z</time>
      </trkpt>
      <trkpt lat="43.62113" lon="3.35675">
        <ele>216.06563625701</ele>
        <time>2016-03-05T14:58:03Z</time>
      </trkpt>
      <trkpt lat="43.62084" lon="3.35681">
        <ele>214.48717355101</ele>
        <time>2016-03-05T14:58:31Z</time>
      </trkpt>
      <trkpt lat="43.62062" lon="3.3569">
        <ele>213.2167636107</ele>
        <time>2016-03-05T14:58:44Z</time>
      </trkpt>
      <trkpt lat="43.62054" lon="3.35688">
        <ele>213.2167636107</ele>
        <time>2016-03-05T14:58:49Z</time>
      </trkpt>
      <trkpt lat="43.62035" lon="3.35674">
        <ele>211.82974610502</ele>
        <time>2016-03-05T14:59:57Z</time>
      </trkpt>
      <trkpt lat="43.62038" lon="3.35673">
        <ele>211.82974610502</ele>
        <time>2016-03-05T14:59:59Z</time>
      </trkpt>
      <trkpt lat="43.62036" lon="3.35666">
        <ele>211.82974610502</ele>
        <time>2016-03-05T15:00:11Z</time>
      </trkpt>
      <trkpt lat="43.62006" lon="3.35645">
        <ele>210.79790306798</ele>
        <time>2016-03-05T15:00:40Z</time>
      </trkpt>
      <trkpt lat="43.61984" lon="3.35636">
        <ele>210.06763155071</ele>
        <time>2016-03-05T15:01:01Z</time>
      </trkpt>
      <trkpt lat="43.61974" lon="3.35625">
        <ele>209.68957706252</ele>
        <time>2016-03-05T15:01:21Z</time>
      </trkpt>
      <trkpt lat="43.61932" lon="3.35646">
        <ele>209.53703821269</ele>
        <time>2016-03-05T15:03:31Z</time>
      </trkpt>
      <trkpt lat="43.61947" lon="3.35635">
        <ele>209.66524229707</ele>
        <time>2016-03-05T15:03:44Z</time>
      </trkpt>
      <trkpt lat="43.61954" lon="3.35632">
        <ele>209.66524229707</ele>
        <time>2016-03-05T15:03:49Z</time>
      </trkpt>
      <trkpt lat="43.61959" lon="3.35629">
        <ele>210.02403096349</ele>
        <time>2016-03-05T15:03:54Z</time>
      </trkpt>
      <trkpt lat="43.61967" lon="3.35626">
        <ele>210.02403096349</ele>
        <time>2016-03-05T15:03:59Z</time>
      </trkpt>
      <trkpt lat="43.61974" lon="3.35625">
        <ele>210.58105291471</ele>
        <time>2016-03-05T15:04:04Z</time>
      </trkpt>
      <trkpt lat="43.6199" lon="3.35629">
        <ele>211.30615430349</ele>
        <time>2016-03-05T15:04:26Z</time>
      </trkpt>
      <trkpt lat="43.61999" lon="3.35635">
        <ele>212.20014255617</ele>
        <time>2016-03-05T15:04:35Z</time>
      </trkpt>
      <trkpt lat="43.62007" lon="3.35633">
        <ele>212.20014255617</ele>
        <time>2016-03-05T15:04:44Z</time>
      </trkpt>
      <trkpt lat="43.62042" lon="3.35607">
        <ele>213.36458295766</ele>
        <time>2016-03-05T15:05:31Z</time>
      </trkpt>
      <trkpt lat="43.6206" lon="3.35596">
        <ele>214.86442776741</ele>
        <time>2016-03-05T15:05:50Z</time>
      </trkpt>
      <trkpt lat="43.62097" lon="3.35579">
        <ele>216.29820422383</ele>
        <time>2016-03-05T15:06:34Z</time>
      </trkpt>
      <trkpt lat="43.62129" lon="3.35582">
        <ele>217.84220182125</ele>
        <time>2016-03-05T15:06:54Z</time>
      </trkpt>
      <trkpt lat="43.62201" lon="3.3557">
        <ele>219.47257816668</ele>
        <time>2016-03-05T15:08:02Z</time>
      </trkpt>
      <trkpt lat="43.62203" lon="3.35571">
        <ele>219.47257816668</ele>
        <time>2016-03-05T15:08:04Z</time>
      </trkpt>
      <trkpt lat="43.62207" lon="3.35564">
        <ele>219.47257816668</ele>
        <time>2016-03-05T15:08:15Z</time>
      </trkpt>
      <trkpt lat="43.62226" lon="3.35556">
        <ele>221.32600754983</ele>
        <time>2016-03-05T15:08:50Z</time>
      </trkpt>
      <trkpt lat="43.62228" lon="3.35555">
        <ele>221.32600754983</ele>
        <time>2016-03-05T15:08:50Z</time>
      </trkpt>
      <trkpt lat="43.62253" lon="3.35542">
        <ele>223.34164881099</ele>
        <time>2016-03-05T15:09:28Z</time>
      </trkpt>
      <trkpt lat="43.62296" lon="3.35522">
        <ele>226.16932678165</ele>
        <time>2016-03-05T15:10:46Z</time>
      </trkpt>
      <trkpt lat="43.6231" lon="3.35525">
        <ele>229.8905688397</ele>
        <time>2016-03-05T15:11:59Z</time>
      </trkpt>
      <trkpt lat="43.62318" lon="3.35528">
        <ele>229.8905688397</ele>
        <time>2016-03-05T15:12:04Z</time>
      </trkpt>
      <trkpt lat="43.62337" lon="3.35503">
        <ele>234.33394944125</ele>
        <time>2016-03-05T15:12:41Z</time>
      </trkpt>
      <trkpt lat="43.62338" lon="3.355">
        <ele>234.33394944125</ele>
        <time>2016-03-05T15:12:44Z</time>
      </trkpt>
      <trkpt lat="43.62339" lon="3.35498">
        <ele>234.33394944125</ele>
        <time>2016-03-05T15:12:49Z</time>
      </trkpt>
      <trkpt lat="43.62339" lon="3.35497">
        <ele>234.33394944125</ele>
        <time>2016-03-05T15:12:54Z</time>
      </trkpt>
      <trkpt lat="43.62341" lon="3.3549">
        <ele>238.9212357971</ele>
        <time>2016-03-05T15:12:59Z</time>
      </trkpt>
      <trkpt lat="43.62343" lon="3.35486">
        <ele>238.9212357971</ele>
        <time>2016-03-05T15:13:04Z</time>
      </trkpt>
      <trkpt lat="43.62347" lon="3.35482">
        <ele>238.9212357971</ele>
        <time>2016-03-05T15:13:09Z</time>
      </trkpt>
      <trkpt lat="43.62352" lon="3.35476">
        <ele>243.44829019844</ele>
        <time>2016-03-05T15:13:14Z</time>
      </trkpt>
      <trkpt lat="43.62355" lon="3.35466">
        <ele>243.44829019844</ele>
        <time>2016-03-05T15:13:19Z</time>
      </trkpt>
      <trkpt lat="43.62357" lon="3.35461">
        <ele>247.87083438142</ele>
        <time>2016-03-05T15:13:24Z</time>
      </trkpt>
      <trkpt lat="43.62359" lon="3.35453">
        <ele>247.87083438142</ele>
        <time>2016-03-05T15:13:29Z</time>
      </trkpt>
      <trkpt lat="43.62361" lon="3.35448">
        <ele>252.17755666251</ele>
        <time>2016-03-05T15:13:34Z</time>
      </trkpt>
      <trkpt lat="43.62364" lon="3.35436">
        <ele>252.17755666251</ele>
        <time>2016-03-05T15:13:43Z</time>
      </trkpt>
      <trkpt lat="43.62364" lon="3.35436">
        <ele>256.27244453295</ele>
        <time>2016-03-05T15:13:44Z</time>
      </trkpt>
      <trkpt lat="43.62364" lon="3.3543">
        <ele>256.27244453295</ele>
        <time>2016-03-05T15:13:49Z</time>
      </trkpt>
      <trkpt lat="43.62363" lon="3.35423">
        <ele>256.27244453295</ele>
        <time>2016-03-05T15:13:54Z</time>
      </trkpt>
      <trkpt lat="43.62366" lon="3.35373">
        <ele>261.11976390626</ele>
        <time>2016-03-05T15:14:50Z</time>
      </trkpt>
      <trkpt lat="43.6238" lon="3.35335">
        <ele>266.02623862454</ele>
        <time>2016-03-05T15:15:22Z</time>
      </trkpt>
      <trkpt lat="43.62382" lon="3.35327">
        <ele>266.02623862454</ele>
        <time>2016-03-05T15:15:53Z</time>
      </trkpt>
      <trkpt lat="43.62388" lon="3.35324">
        <ele>270.83996421669</ele>
        <time>2016-03-05T15:16:04Z</time>
      </trkpt>
      <trkpt lat="43.6239" lon="3.35324">
        <ele>270.83996421669</ele>
        <time>2016-03-05T15:16:11Z</time>
      </trkpt>
      <trkpt lat="43.62418" lon="3.35298">
        <ele>275.83901427961</ele>
        <time>2016-03-05T15:17:02Z</time>
      </trkpt>
      <trkpt lat="43.62472" lon="3.35275">
        <ele>281.18027831725</ele>
        <time>2016-03-05T15:18:08Z</time>
      </trkpt>
      <trkpt lat="43.62477" lon="3.35279">
        <ele>281.18027831725</ele>
        <time>2016-03-05T15:18:08Z</time>
      </trkpt>
      <trkpt lat="43.62499" lon="3.35245">
        <ele>286.51882605749</ele>
        <time>2016-03-05T15:18:50Z</time>
      </trkpt>
      <trkpt lat="43.62503" lon="3.3524">
        <ele>286.51882605749</ele>
        <time>2016-03-05T15:18:50Z</time>
      </trkpt>
      <trkpt lat="43.62505" lon="3.35228">
        <ele>291.6510066748</ele>
        <time>2016-03-05T15:19:06Z</time>
      </trkpt>
      <trkpt lat="43.62535" lon="3.35157">
        <ele>296.72080828494</ele>
        <time>2016-03-05T15:19:59Z</time>
      </trkpt>
      <trkpt lat="43.62562" lon="3.35124">
        <ele>301.3580683571</ele>
        <time>2016-03-05T15:20:40Z</time>
      </trkpt>
      <trkpt lat="43.62615" lon="3.35074">
        <ele>305.07755187365</ele>
        <time>2016-03-05T15:21:59Z</time>
      </trkpt>
      <trkpt lat="43.62724" lon="3.35017">
        <ele>306.6546610607</ele>
        <time>2016-03-05T15:23:55Z</time>
      </trkpt>
      <trkpt lat="43.62727" lon="3.35011">
        <ele>306.6546610607</ele>
        <time>2016-03-05T15:24:01Z</time>
      </trkpt>
      <trkpt lat="43.62734" lon="3.35007">
        <ele>307.46889777198</ele>
        <time>2016-03-05T15:24:39Z</time>
      </trkpt>
      <trkpt lat="43.62767" lon="3.34996">
        <ele>307.90764078473</ele>
        <time>2016-03-05T15:25:00Z</time>
      </trkpt>
      <trkpt lat="43.62798" lon="3.34997">
        <ele>308.59079199916</ele>
        <time>2016-03-05T15:25:34Z</time>
      </trkpt>
      <trkpt lat="43.62853" lon="3.35005">
        <ele>309.87634876224</ele>
        <time>2016-03-05T15:26:24Z</time>
      </trkpt>
      <trkpt lat="43.62858" lon="3.35005">
        <ele>309.87634876224</ele>
        <time>2016-03-05T15:26:26Z</time>
      </trkpt>
      <trkpt lat="43.62888" lon="3.35083">
        <ele>312.88738145358</ele>
        <time>2016-03-05T15:27:59Z</time>
      </trkpt>
      <trkpt lat="43.6288" lon="3.35133">
        <ele>316.09485763099</ele>
        <time>2016-03-05T15:28:44Z</time>
      </trkpt>
      <trkpt lat="43.62883" lon="3.35139">
        <ele>316.09485763099</ele>
        <time>2016-03-05T15:28:49Z</time>
      </trkpt>
      <trkpt lat="43.62954" lon="3.35182">
        <ele>320.04182384821</ele>
        <time>2016-03-05T15:30:35Z</time>
      </trkpt>
      <trkpt lat="43.63015" lon="3.35242">
        <ele>325.38826298614</ele>
        <time>2016-03-05T15:31:59Z</time>
      </trkpt>
      <trkpt lat="43.63018" lon="3.35244">
        <ele>325.38826298614</ele>
        <time>2016-03-05T15:32:04Z</time>
      </trkpt>
      <trkpt lat="43.63042" lon="3.35263">
        <ele>331.1280764836</ele>
        <time>2016-03-05T15:32:59Z</time>
      </trkpt>
      <trkpt lat="43.63049" lon="3.3527">
        <ele>336.47244968101</ele>
        <time>2016-03-05T15:33:14Z</time>
      </trkpt>
      <trkpt lat="43.63052" lon="3.35296">
        <ele>341.85929233765</ele>
        <time>2016-03-05T15:33:40Z</time>
      </trkpt>
      <trkpt lat="43.63059" lon="3.35316">
        <ele>347.07491614665</ele>
        <time>2016-03-05T15:33:59Z</time>
      </trkpt>
      <trkpt lat="43.63083" lon="3.35318">
        <ele>352.26804399954</ele>
        <time>2016-03-05T15:34:40Z</time>
      </trkpt>
      <trkpt lat="43.63083" lon="3.35324">
        <ele>352.26804399954</ele>
        <time>2016-03-05T15:34:42Z</time>
      </trkpt>
      <trkpt lat="43.63088" lon="3.35397">
        <ele>358.51362464518</ele>
        <time>2016-03-05T15:35:59Z</time>
      </trkpt>
      <trkpt lat="43.63115" lon="3.35439">
        <ele>364.88837358585</ele>
        <time>2016-03-05T15:36:58Z</time>
      </trkpt>
      <trkpt lat="43.63119" lon="3.35443">
        <ele>364.88837358585</ele>
        <time>2016-03-05T15:37:00Z</time>
      </trkpt>
      <trkpt lat="43.63126" lon="3.35471">
        <ele>371.08445383749</ele>
        <time>2016-03-05T15:37:34Z</time>
      </trkpt>
      <trkpt lat="43.63127" lon="3.35472">
        <ele>371.08445383749</ele>
        <time>2016-03-05T15:37:39Z</time>
      </trkpt>
      <trkpt lat="43.63132" lon="3.35483">
        <ele>376.55810548712</ele>
        <time>2016-03-05T15:37:49Z</time>
      </trkpt>
      <trkpt lat="43.63135" lon="3.35487">
        <ele>376.55810548712</ele>
        <time>2016-03-05T15:37:54Z</time>
      </trkpt>
      <trkpt lat="43.63136" lon="3.35489">
        <ele>376.55810548712</ele>
        <time>2016-03-05T15:37:59Z</time>
      </trkpt>
      <trkpt lat="43.6314" lon="3.35494">
        <ele>381.21141059247</ele>
        <time>2016-03-05T15:38:04Z</time>
      </trkpt>
      <trkpt lat="43.63141" lon="3.35496">
        <ele>381.21141059247</ele>
        <time>2016-03-05T15:38:09Z</time>
      </trkpt>
      <trkpt lat="43.63151" lon="3.35504">
        <ele>385.12923082749</ele>
        <time>2016-03-05T15:38:36Z</time>
      </trkpt>
      <trkpt lat="43.63155" lon="3.35501">
        <ele>385.12923082749</ele>
        <time>2016-03-05T15:38:36Z</time>
      </trkpt>
      <trkpt lat="43.63163" lon="3.35502">
        <ele>388.37818420551</ele>
        <time>2016-03-05T15:38:44Z</time>
      </trkpt>
      <trkpt lat="43.63165" lon="3.35517">
        <ele>391.00777854031</ele>
        <time>2016-03-05T15:39:10Z</time>
      </trkpt>
      <trkpt lat="43.63192" lon="3.3558">
        <ele>392.69122579231</ele>
        <time>2016-03-05T15:39:52Z</time>
      </trkpt>
      <trkpt lat="43.63193" lon="3.35581">
        <ele>392.69122579231</ele>
        <time>2016-03-05T15:39:53Z</time>
      </trkpt>
      <trkpt lat="43.63197" lon="3.35588">
        <ele>392.69122579231</ele>
        <time>2016-03-05T15:39:59Z</time>
      </trkpt>
      <trkpt lat="43.63284" lon="3.35696">
        <ele>389.26647228791</ele>
        <time>2016-03-05T15:43:42Z</time>
      </trkpt>
      <trkpt lat="43.63284" lon="3.35694">
        <ele>389.26647228791</ele>
        <time>2016-03-05T15:43:44Z</time>
      </trkpt>
      <trkpt lat="43.6329" lon="3.35684">
        <ele>385.48076942407</ele>
        <time>2016-03-05T15:43:53Z</time>
      </trkpt>
      <trkpt lat="43.63291" lon="3.35684">
        <ele>385.48076942407</ele>
        <time>2016-03-05T15:43:54Z</time>
      </trkpt>
      <trkpt lat="43.63295" lon="3.35684">
        <ele>385.48076942407</ele>
        <time>2016-03-05T15:43:59Z</time>
      </trkpt>
      <trkpt lat="43.63306" lon="3.35687">
        <ele>381.30958453161</ele>
        <time>2016-03-05T15:44:16Z</time>
      </trkpt>
      <trkpt lat="43.63311" lon="3.3569">
        <ele>381.30958453161</ele>
        <time>2016-03-05T15:44:19Z</time>
      </trkpt>
      <trkpt lat="43.63362" lon="3.35738">
        <ele>374.39674203793</ele>
        <time>2016-03-05T15:45:27Z</time>
      </trkpt>
      <trkpt lat="43.63363" lon="3.35739">
        <ele>374.39674203793</ele>
        <time>2016-03-05T15:45:27Z</time>
      </trkpt>
      <trkpt lat="43.63362" lon="3.35739">
        <ele>374.39674203793</ele>
        <time>2016-03-05T15:45:32Z</time>
      </trkpt>
      <trkpt lat="43.63388" lon="3.35765">
        <ele>365.72286773653</ele>
        <time>2016-03-05T15:46:06Z</time>
      </trkpt>
      <trkpt lat="43.63401" lon="3.35776">
        <ele>357.05165397888</ele>
        <time>2016-03-05T15:46:24Z</time>
      </trkpt>
      <trkpt lat="43.63437" lon="3.35801">
        <ele>348.4174102916</ele>
        <time>2016-03-05T15:47:07Z</time>
      </trkpt>
      <trkpt lat="43.63448" lon="3.35804">
        <ele>338.90041730756</ele>
        <time>2016-03-05T15:47:07Z</time>
      </trkpt>
      <trkpt lat="43.63461" lon="3.35852">
        <ele>328.28472476897</ele>
        <time>2016-03-05T15:48:02Z</time>
      </trkpt>
      <trkpt lat="43.63464" lon="3.35936">
        <ele>316.71875201845</ele>
        <time>2016-03-05T15:49:05Z</time>
      </trkpt>
      <trkpt lat="43.63463" lon="3.35944">
        <ele>316.71875201845</ele>
        <time>2016-03-05T15:49:05Z</time>
      </trkpt>
      <trkpt lat="43.63466" lon="3.35964">
        <ele>305.53827986911</ele>
        <time>2016-03-05T15:49:25Z</time>
      </trkpt>
      <trkpt lat="43.63468" lon="3.35976">
        <ele>294.94168005475</ele>
        <time>2016-03-05T15:49:25Z</time>
      </trkpt>
      <trkpt lat="43.63463" lon="3.36066">
        <ele>282.55967039234</ele>
        <time>2016-03-05T15:51:00Z</time>
      </trkpt>
      <trkpt lat="43.63459" lon="3.36075">
        <ele>282.55967039234</ele>
        <time>2016-03-05T15:51:00Z</time>
      </trkpt>
      <trkpt lat="43.63457" lon="3.36163">
        <ele>269.93375765591</ele>
        <time>2016-03-05T15:51:52Z</time>
      </trkpt>
      <trkpt lat="43.63462" lon="3.3617">
        <ele>269.93375765591</ele>
        <time>2016-03-05T15:51:54Z</time>
      </trkpt>
      <trkpt lat="43.63461" lon="3.36202">
        <ele>257.91564235274</ele>
        <time>2016-03-05T15:52:21Z</time>
      </trkpt>
      <trkpt lat="43.63487" lon="3.36223">
        <ele>246.48486747805</ele>
        <time>2016-03-05T15:52:56Z</time>
      </trkpt>
      <trkpt lat="43.63497" lon="3.36228">
        <ele>235.92255078787</ele>
        <time>2016-03-05T15:52:56Z</time>
      </trkpt>
      <trkpt lat="43.63512" lon="3.36265">
        <ele>226.03902627711</ele>
        <time>2016-03-05T15:53:32Z</time>
      </trkpt>
      <trkpt lat="43.63517" lon="3.36276">
        <ele>217.0736005205</ele>
        <time>2016-03-05T15:53:32Z</time>
      </trkpt>
      <trkpt lat="43.63532" lon="3.36381">
        <ele>208.149185965</ele>
        <time>2016-03-05T15:54:51Z</time>
      </trkpt>
      <trkpt lat="43.63533" lon="3.36397">
        <ele>200.12369973377</ele>
        <time>2016-03-05T15:54:51Z</time>
      </trkpt>
      <trkpt lat="43.63534" lon="3.36411">
        <ele>192.92385110531</ele>
        <time>2016-03-05T15:54:59Z</time>
      </trkpt>
      <trkpt lat="43.63539" lon="3.36445">
        <ele>186.30549794855</ele>
        <time>2016-03-05T15:55:31Z</time>
      </trkpt>
      <trkpt lat="43.63542" lon="3.36454">
        <ele>186.30549794855</ele>
        <time>2016-03-05T15:55:31Z</time>
      </trkpt>
      <trkpt lat="43.63547" lon="3.36478">
        <ele>180.27041224209</ele>
        <time>2016-03-05T15:55:54Z</time>
      </trkpt>
      <trkpt lat="43.63571" lon="3.36525">
        <ele>174.87530316533</ele>
        <time>2016-03-05T15:56:28Z</time>
      </trkpt>
      <trkpt lat="43.63588" lon="3.36588">
        <ele>170.7608672712</ele>
        <time>2016-03-05T15:57:05Z</time>
      </trkpt>
      <trkpt lat="43.63587" lon="3.36594">
        <ele>170.7608672712</ele>
        <time>2016-03-05T15:57:05Z</time>
      </trkpt>
      <trkpt lat="43.63576" lon="3.3665">
        <ele>168.0262991642</ele>
        <time>2016-03-05T15:57:48Z</time>
      </trkpt>
      <trkpt lat="43.63576" lon="3.36656">
        <ele>168.0262991642</ele>
        <time>2016-03-05T15:57:48Z</time>
      </trkpt>
      <trkpt lat="43.63571" lon="3.36669">
        <ele>166.0814956931</ele>
        <time>2016-03-05T15:57:56Z</time>
      </trkpt>
      <trkpt lat="43.63585" lon="3.3675">
        <ele>165.02522573338</ele>
        <time>2016-03-05T15:58:44Z</time>
      </trkpt>
      <trkpt lat="43.63582" lon="3.36848">
        <ele>164.26848827137</ele>
        <time>2016-03-05T15:59:48Z</time>
      </trkpt>
      <trkpt lat="43.63582" lon="3.36852">
        <ele>164.26848827137</ele>
        <time>2016-03-05T15:59:50Z</time>
      </trkpt>
      <trkpt lat="43.63578" lon="3.36902">
        <ele>164.47461100107</ele>
        <time>2016-03-05T16:00:43Z</time>
      </trkpt>
      <trkpt lat="43.63566" lon="3.36922">
        <ele>165.26056264411</ele>
        <time>2016-03-05T16:00:56Z</time>
      </trkpt>
      <trkpt lat="43.63557" lon="3.36918">
        <ele>165.26056264411</ele>
        <time>2016-03-05T16:01:35Z</time>
      </trkpt>
      <trkpt lat="43.63555" lon="3.36915">
        <ele>166.47108616995</ele>
        <time>2016-03-05T16:02:50Z</time>
      </trkpt>
      <trkpt lat="43.63556" lon="3.36921">
        <ele>166.47108616995</ele>
        <time>2016-03-05T16:03:04Z</time>
      </trkpt>
      <trkpt lat="43.63556" lon="3.3692">
        <ele>166.47108616995</ele>
        <time>2016-03-05T16:03:09Z</time>
      </trkpt>
      <trkpt lat="43.63554" lon="3.36918">
        <ele>166.47108616995</ele>
        <time>2016-03-05T16:03:24Z</time>
      </trkpt>
    </trkseg>
  </trk>
</gpx>